Time;durP1;ratioP1;P1;durP2;ratioP2;P2;SDS_P1;SDS_P2;PMS_P1;PMS_P2;Temp;Humidity;BMP_temperature;BMP_pressure;BME280_temperature;BME280_humidity;BME280_pressure;Samples;Min_cycle;Max_cycle;Signal;HPM_P1;HPM_P2
2023/08/29 00:01:47;;;;;;;9.00;4.40;;;;;;;25.09;71.72;100110.55;110158;1239;57651;-72
2023/08/29 00:04:16;;;;;;;8.60;4.20;;;;;;;25.10;70.70;100112.23;110133;1240;62750;-72
2023/08/29 00:06:45;;;;;;;11.00;3.70;;;;;;;25.12;69.64;100112.88;110167;1239;62098;-72
2023/08/29 00:09:13;;;;;;;9.80;4.90;;;;;;;25.15;71.41;100109.45;110093;1237;69396;-75
2023/08/29 00:11:42;;;;;;;9.70;4.40;;;;;;;25.19;72.43;100107.67;110110;1239;62451;-72
2023/08/29 00:14:12;;;;;;;8.00;4.10;;;;;;;25.18;71.65;100104.21;109937;1241;57700;-72
2023/08/29 00:16:41;;;;;;;12.40;3.80;;;;;;;25.15;71.97;100102.98;110140;1237;60251;-72
2023/08/29 00:19:09;;;;;;;11.80;4.20;;;;;;;25.14;71.52;100100.36;110070;1237;74184;-72
2023/08/29 00:21:38;;;;;;;5.90;4.10;;;;;;;25.11;71.08;100097.98;110123;1237;72686;-72
2023/08/29 00:24:11;;;;;;;8.60;4.60;;;;;;;25.10;71.98;100098.71;110049;1241;59379;-71
2023/08/29 00:26:41;;;;;;;7.20;4.40;;;;;;;25.08;72.71;100098.16;110123;1239;63491;-71
2023/08/29 00:29:09;;;;;;;11.20;4.70;;;;;;;25.07;72.43;100096.89;109949;1241;60151;-71
2023/08/29 00:31:38;;;;;;;11.40;4.90;;;;;;;25.04;71.80;100100.23;110103;1238;60928;-71
2023/08/29 00:34:07;;;;;;;7.40;3.80;;;;;;;25.02;71.29;100104.84;109988;1240;63162;-71
2023/08/29 00:36:36;;;;;;;9.80;4.30;;;;;;;25.02;70.27;100103.20;109999;1238;61397;-71
2023/08/29 00:39:05;;;;;;;7.60;3.90;;;;;;;25.05;70.49;100105.77;110077;1238;70528;-71
2023/08/29 00:41:34;;;;;;;9.60;4.80;;;;;;;25.14;69.96;100104.84;110068;1237;73345;-71
2023/08/29 00:44:03;;;;;;;7.00;4.60;;;;;;;25.13;69.14;100103.63;109955;1239;61425;-71
2023/08/29 00:46:32;;;;;;;8.40;4.30;;;;;;;25.17;68.77;100101.59;109851;1241;59763;-71
2023/08/29 00:49:01;;;;;;;8.40;4.30;;;;;;;25.24;68.80;100101.56;109852;1241;73952;-71
2023/08/29 00:51:29;;;;;;;5.90;3.70;;;;;;;25.22;69.52;100097.64;109997;1241;71725;-71
2023/08/29 00:53:58;;;;;;;7.30;4.30;;;;;;;25.23;68.63;100096.09;110083;1238;58945;-70
2023/08/29 00:56:27;;;;;;;7.60;4.00;;;;;;;25.26;68.28;100094.98;110039;1241;62282;-72
2023/08/29 00:58:56;;;;;;;12.10;4.60;;;;;;;25.27;69.25;100095.21;109996;1241;57744;-72
2023/08/29 01:01:26;;;;;;;7.10;4.20;;;;;;;25.25;69.11;100094.49;109895;1237;57183;-72
2023/08/29 01:03:57;;;;;;;10.90;4.10;;;;;;;25.23;69.58;100098.49;110080;1241;62714;-71
2023/08/29 01:06:26;;;;;;;8.80;4.20;;;;;;;25.19;69.61;100098.59;109935;1242;71135;-72
2023/08/29 01:08:55;;;;;;;7.70;4.10;;;;;;;25.17;70.74;100101.89;110173;1238;70588;-70
2023/08/29 01:11:40;;;;;;;9.00;4.30;;;;;;;25.16;70.49;100097.42;110161;1238;74828;-71
2023/08/29 01:14:37;;;;;;;7.30;4.40;;;;;;;25.12;69.74;100093.52;110155;1238;61892;-71
2023/08/29 01:17:39;;;;;;;10.80;4.00;;;;;;;25.09;69.55;100093.88;110075;1238;57226;-71
2023/08/29 01:20:10;;;;;;;11.90;4.70;;;;;;;25.07;70.43;100096.77;110083;1238;62146;-72
2023/08/29 01:23:19;;;;;;;10.60;3.90;;;;;;;25.07;70.27;100093.64;110093;1238;61369;-71
2023/08/29 01:26:09;;;;;;;7.60;4.00;;;;;;;25.07;68.86;100093.31;110102;1238;60349;-72
2023/08/29 01:28:44;;;;;;;7.10;4.30;;;;;;;25.05;69.42;100089.45;110030;1237;63515;-71
2023/08/29 01:31:13;;;;;;;6.90;4.10;;;;;;;25.03;69.41;100088.10;109921;1241;57740;-71
2023/08/29 01:33:43;;;;;;;6.70;4.40;;;;;;;25.01;69.20;100085.11;109919;1237;57727;-72
2023/08/29 01:36:11;;;;;;;11.40;4.30;;;;;;;25.00;68.67;100084.41;109891;1238;72688;-71
2023/08/29 01:38:40;;;;;;;7.50;4.50;;;;;;;25.04;68.78;100085.27;110050;1238;62776;-71
2023/08/29 01:41:09;;;;;;;9.80;4.80;;;;;;;25.06;68.90;100086.09;110059;1237;59707;-72
2023/08/29 01:43:38;;;;;;;8.40;4.40;;;;;;;25.05;68.74;100086.77;110131;1237;63033;-71
2023/08/29 01:46:07;;;;;;;11.10;4.10;;;;;;;25.04;68.85;100086.48;109872;1242;60466;-72
2023/08/29 01:48:37;;;;;;;6.20;4.10;;;;;;;25.06;68.39;100090.56;110072;1237;60705;-72
2023/08/29 01:51:06;;;;;;;9.60;4.30;;;;;;;25.06;69.37;100087.55;109941;1238;74053;-72
2023/08/29 01:53:34;;;;;;;8.70;4.30;;;;;;;25.04;69.80;100083.33;110052;1238;72074;-72
2023/08/29 01:56:03;;;;;;;13.90;4.90;;;;;;;25.03;69.38;100085.31;110052;1238;59344;-72
2023/08/29 01:58:34;;;;;;;8.10;4.90;;;;;;;25.01;70.29;100088.73;109860;1238;64562;-72
2023/08/29 02:01:03;;;;;;;8.70;4.20;;;;;;;24.99;71.18;100090.27;109881;1241;57762;-72
2023/08/29 02:03:51;;;;;;;9.40;4.70;;;;;;;24.96;71.28;100096.59;110076;1238;57707;-72
2023/08/29 02:06:20;;;;;;;10.10;4.20;;;;;;;24.93;70.66;100098.10;110012;1238;62043;-74
2023/08/29 02:08:49;;;;;;;6.30;4.60;;;;;;;24.91;71.00;100095.62;110034;1238;60878;-71
2023/08/29 02:11:18;;;;;;;10.00;4.50;;;;;;;24.87;72.32;100090.31;109924;1237;59008;-71
2023/08/29 02:13:47;;;;;;;9.90;4.70;;;;;;;24.78;74.58;100095.97;110080;1237;73100;-71
2023/08/29 02:16:15;;;;;;;9.40;4.30;;;;;;;24.67;74.73;100093.10;110045;1238;57479;-74
2023/08/29 02:18:44;;;;;;;9.80;4.60;;;;;;;24.52;75.78;100088.29;110048;1237;57415;-74
2023/08/29 02:21:13;;;;;;;8.10;4.20;;;;;;;24.36;77.25;100087.45;110107;1238;61915;-71
2023/08/29 02:23:42;;;;;;;12.00;4.90;;;;;;;24.22;77.70;100096.09;109987;1241;71069;-71
2023/08/29 02:26:10;;;;;;;8.30;4.70;;;;;;;24.07;78.94;100096.02;110098;1237;60545;-72
2023/08/29 02:28:39;;;;;;;8.50;4.40;;;;;;;23.91;80.72;100099.67;109993;1238;62252;-71
2023/08/29 02:31:09;;;;;;;7.70;4.50;;;;;;;23.74;80.53;100101.36;109981;1240;59868;-71
2023/08/29 02:33:38;;;;;;;11.20;4.40;;;;;;;23.61;80.68;100102.20;109882;1238;57579;-71
2023/08/29 02:36:07;;;;;;;6.30;4.20;;;;;;;23.46;82.14;100104.09;109789;1238;62311;-70
2023/08/29 02:38:36;;;;;;;7.40;4.60;;;;;;;23.30;84.51;100106.09;110056;1238;70462;-71
2023/08/29 02:41:11;;;;;;;8.40;4.70;;;;;;;23.25;84.67;100100.98;109979;1238;60718;-72
2023/08/29 02:43:40;;;;;;;7.50;4.80;;;;;;;23.23;85.35;100099.95;109786;1238;73885;-72
2023/08/29 02:46:08;;;;;;;15.30;5.40;;;;;;;23.06;85.78;100102.35;109966;1239;61642;-72
2023/08/29 02:48:37;;;;;;;10.60;5.50;;;;;;;23.01;84.75;100107.70;110060;1238;57143;-72
2023/08/29 02:51:06;;;;;;;7.90;5.10;;;;;;;22.95;86.40;100112.25;110095;1238;62766;-72
2023/08/29 02:53:35;;;;;;;9.70;5.10;;;;;;;22.90;87.32;100116.67;109990;1238;61414;-72
2023/08/29 02:56:04;;;;;;;7.20;4.90;;;;;;;22.85;87.11;100116.41;110086;1238;59181;-73
2023/08/29 02:58:33;;;;;;;11.90;5.50;;;;;;;22.70;89.19;100115.21;109957;1238;73057;-71
2023/08/29 03:01:03;;;;;;;9.10;4.60;;;;;;;22.61;89.96;100110.49;110021;1239;57686;-72
2023/08/29 03:03:32;;;;;;;15.40;5.20;;;;;;;22.62;89.03;100104.06;109935;1238;60414;-71
2023/08/29 03:06:01;;;;;;;10.40;5.30;;;;;;;22.69;87.73;100096.75;110042;1238;73056;-71
2023/08/29 03:08:30;;;;;;;11.90;4.90;;;;;;;22.82;87.78;100098.88;109864;1238;73068;-71
2023/08/29 03:11:06;;;;;;;11.20;5.80;;;;;;;22.87;87.17;100099.10;109918;1238;60545;-71
2023/08/29 03:13:35;;;;;;;10.40;5.50;;;;;;;22.81;87.07;100102.89;109768;1238;62526;-72
2023/08/29 03:16:14;;;;;;;19.00;5.60;;;;;;;22.76;88.01;100098.66;109891;1239;59643;-73
2023/08/29 03:18:47;;;;;;;42.20;7.40;;;;;;;22.76;86.99;100101.05;109852;1238;57547;-70
2023/08/29 03:21:16;;;;;;;10.10;5.20;;;;;;;22.77;87.80;100107.52;109980;1238;73388;-71
2023/08/29 03:23:44;;;;;;;14.20;5.70;;;;;;;22.76;86.60;100106.04;109797;1237;72314;-71
2023/08/29 03:26:13;;;;;;;19.30;5.90;;;;;;;22.80;86.56;100105.20;109866;1238;61030;-72
2023/08/29 03:28:43;;;;;;;18.80;6.30;;;;;;;22.90;84.70;100101.14;109856;1238;74084;-72
2023/08/29 03:31:15;;;;;;;9.90;6.30;;;;;;;22.94;86.05;100103.98;109729;1238;60010;-71
2023/08/29 03:33:44;;;;;;;15.20;6.20;;;;;;;23.04;86.71;100101.34;109601;1238;57698;-70
2023/08/29 03:36:14;;;;;;;11.80;6.20;;;;;;;23.09;86.41;100105.89;109642;1238;61951;-71
2023/08/29 03:38:43;;;;;;;12.00;6.20;;;;;;;23.11;85.83;100105.02;109693;1238;71267;-72
2023/08/29 03:41:12;;;;;;;10.70;5.10;;;;;;;23.00;86.53;100107.50;109652;1244;69625;-72
2023/08/29 03:43:42;;;;;;;11.40;5.70;;;;;;;22.90;87.62;100111.51;109775;1238;62558;-72
2023/08/29 03:46:11;;;;;;;8.80;5.50;;;;;;;22.79;88.35;100114.71;109627;1241;61092;-72
2023/08/29 03:48:41;;;;;;;12.30;6.00;;;;;;;22.69;89.52;100117.75;109890;1238;61440;-71
2023/08/29 03:51:09;;;;;;;12.20;6.00;;;;;;;22.56;90.83;100117.42;110028;1238;73778;-71
2023/08/29 03:53:38;;;;;;;17.00;6.30;;;;;;;22.52;91.59;100115.81;109843;1238;61156;-71
2023/08/29 03:56:09;;;;;;;13.00;5.40;;;;;;;22.46;91.69;100105.69;109840;1238;60660;-70
2023/08/29 03:58:38;;;;;;;13.60;5.80;;;;;;;22.41;92.20;100107.31;109886;1238;63904;-71
2023/08/29 04:01:07;;;;;;;17.80;5.80;;;;;;;22.42;92.93;100112.11;109895;1241;57719;-71
2023/08/29 04:03:38;;;;;;;16.70;5.80;;;;;;;22.38;93.23;100112.91;110012;1238;59745;-70
2023/08/29 04:06:07;;;;;;;9.60;5.40;;;;;;;22.33;93.80;100111.48;109948;1238;62631;-70
2023/08/29 04:08:36;;;;;;;9.00;5.50;;;;;;;22.30;94.46;100112.75;110034;1238;61514;-70
2023/08/29 04:11:04;;;;;;;14.50;6.20;;;;;;;22.31;93.91;100112.55;110020;1238;69442;-70
2023/08/29 04:13:35;;;;;;;12.50;6.00;;;;;;;22.30;94.30;100115.04;109984;1238;74232;-71
2023/08/29 04:16:05;;;;;;;11.10;6.10;;;;;;;22.32;93.71;100119.70;109882;1241;57611;-71
2023/08/29 04:18:34;;;;;;;10.70;5.80;;;;;;;22.34;94.70;100121.09;109993;1238;60983;-71
2023/08/29 04:21:03;;;;;;;17.90;6.10;;;;;;;22.39;94.75;100122.09;109994;1238;73659;-71
2023/08/29 04:23:31;;;;;;;10.40;5.50;;;;;;;22.47;93.46;100122.32;109974;1238;72111;-71
2023/08/29 04:26:01;;;;;;;15.00;6.20;;;;;;;22.54;93.22;100122.33;110013;1238;60293;-71
2023/08/29 04:28:30;;;;;;;13.20;5.50;;;;;;;22.67;93.03;100119.02;109732;1238;72605;-72
2023/08/29 04:31:09;;;;;;;16.20;5.90;;;;;;;22.76;93.16;100117.05;109863;1242;60251;-70
2023/08/29 04:33:39;;;;;;;15.50;5.90;;;;;;;22.92;93.55;100117.05;109763;1242;57377;-74
2023/08/29 04:36:08;;;;;;;12.40;6.40;;;;;;;23.05;93.04;100116.02;110019;1238;62876;-71
2023/08/29 04:38:38;;;;;;;13.70;6.30;;;;;;;23.20;92.23;100113.33;109757;1238;71974;-71
2023/08/29 04:41:07;;;;;;;13.80;6.10;;;;;;;23.37;91.56;100116.00;109925;1238;70136;-72
2023/08/29 04:43:35;;;;;;;13.90;6.60;;;;;;;23.50;91.04;100116.09;109875;1238;73323;-73
2023/08/29 04:46:07;;;;;;;14.10;6.00;;;;;;;23.63;90.72;100117.02;109879;1240;57708;-72
2023/08/29 04:48:36;;;;;;;22.90;6.80;;;;;;;23.78;89.42;100116.73;109894;1238;60374;-71
2023/08/29 04:51:05;;;;;;;16.80;6.40;;;;;;;23.91;88.21;100113.55;109893;1238;63271;-73
2023/08/29 04:53:34;;;;;;;13.00;5.30;;;;;;;24.05;86.91;100112.66;109930;1239;61161;-76
2023/08/29 04:56:04;;;;;;;15.40;6.30;;;;;;;24.20;84.78;100116.02;109967;1238;69522;-74
2023/08/29 04:58:36;;;;;;;12.60;5.90;;;;;;;24.36;84.54;100118.70;109952;1238;73995;-75
2023/08/29 05:01:05;;;;;;;11.90;5.70;;;;;;;24.51;82.15;100112.98;109806;1238;60662;-73
2023/08/29 05:03:34;;;;;;;15.00;5.90;;;;;;;24.65;81.59;100114.02;109909;1237;60794;-77
2023/08/29 05:06:04;;;;;;;15.30;5.60;;;;;;;24.80;79.08;100113.50;109952;1238;72948;-75
2023/08/29 05:08:36;;;;;;;20.00;5.90;;;;;;;24.95;78.63;100115.75;109457;1241;340375;-72
2023/08/29 05:11:05;;;;;;;;;;;;;;;25.13;76.78;100113.92;109976;1237;69658;-73
2023/08/29 05:13:34;;;;;;;9.90;5.20;;;;;;;25.36;74.83;100113.55;109866;1238;62656;-73
2023/08/29 05:16:03;;;;;;;14.50;5.80;;;;;;;25.48;75.03;100112.30;110032;1238;59317;-73
2023/08/29 05:18:33;;;;;;;19.00;5.60;;;;;;;25.59;73.81;100113.48;109881;1240;57105;-76
2023/08/29 05:21:02;;;;;;;19.50;6.50;;;;;;;25.78;72.64;100106.38;109921;1238;73521;-77
2023/08/29 05:23:30;;;;;;;14.80;5.70;;;;;;;25.90;72.14;100100.99;109906;1238;62702;-73
2023/08/29 05:25:59;;;;;;;11.60;5.70;;;;;;;26.04;71.63;100103.56;110005;1238;60191;-73
2023/08/29 05:28:28;;;;;;;12.50;5.10;;;;;;;26.17;70.53;100101.77;110018;1239;63059;-83
2023/08/29 05:30:57;;;;;;;16.40;5.60;;;;;;;26.29;70.43;100101.98;109975;1239;57859;-80
2023/08/29 05:33:26;;;;;;;17.70;6.20;;;;;;;26.42;70.08;100102.10;110004;1238;57669;-73
2023/08/29 05:35:55;;;;;;;12.00;5.70;;;;;;;26.56;69.35;100103.50;110006;1238;72285;-74
2023/08/29 05:38:25;;;;;;;18.10;5.70;;;;;;;26.69;69.17;100108.27;110038;1238;62737;-74
2023/08/29 05:40:55;;;;;;;14.60;6.20;;;;;;;26.86;68.35;100104.48;109965;1238;69313;-74
2023/08/29 05:43:24;;;;;;;14.80;5.70;;;;;;;26.98;67.65;100107.92;109889;1241;63066;-74
2023/08/29 05:45:55;;;;;;;13.60;6.20;;;;;;;27.11;67.38;100107.45;109881;1239;60203;-74
2023/08/29 05:48:24;;;;;;;16.50;5.50;;;;;;;27.24;66.81;100111.27;109777;1237;57757;-75
2023/08/29 05:50:53;;;;;;;21.10;5.90;;;;;;;27.35;66.63;100107.23;109988;1241;64417;-75
2023/08/29 05:53:22;;;;;;;16.80;6.10;;;;;;;27.46;66.77;100106.91;110024;1239;60619;-76
2023/08/29 05:55:51;;;;;;;18.30;5.90;;;;;;;27.59;66.29;100105.46;109942;1239;59000;-73
2023/08/29 05:58:21;;;;;;;16.50;6.00;;;;;;;27.67;66.25;100102.05;109788;1242;62244;-72
2023/08/29 06:00:51;;;;;;;17.30;5.90;;;;;;;27.78;65.58;100099.71;109905;1241;57158;-74
2023/08/29 06:03:19;;;;;;;25.60;6.90;;;;;;;27.92;65.19;100102.98;109959;1238;61023;-74
2023/08/29 06:05:51;;;;;;;14.90;5.40;;;;;;;28.04;64.41;100099.77;109988;1238;64500;-73
2023/08/29 06:08:20;;;;;;;16.10;5.40;;;;;;;28.13;63.99;100101.92;109989;1238;71607;-73
2023/08/29 06:10:48;;;;;;;18.70;5.00;;;;;;;28.18;63.90;100095.73;110027;1238;69745;-74
2023/08/29 06:13:17;;;;;;;21.10;5.90;;;;;;;28.37;63.77;100105.94;109941;1237;65411;-74
2023/08/29 06:15:46;;;;;;;17.20;5.50;;;;;;;28.50;63.04;100104.69;110010;1238;57516;-75
2023/08/29 06:18:15;;;;;;;18.30;5.10;;;;;;;28.64;62.99;100103.81;110064;1237;60985;-73
2023/08/29 06:20:43;;;;;;;12.10;5.10;;;;;;;28.73;61.17;100102.07;110110;1237;64258;-79
2023/08/29 06:23:13;;;;;;;12.80;5.20;;;;;;;28.88;60.59;100105.67;110093;1239;61421;-75
2023/08/29 06:25:41;;;;;;;15.80;5.20;;;;;;;29.06;60.93;100105.75;110022;1238;70784;-76
2023/08/29 06:28:10;;;;;;;12.70;5.50;;;;;;;29.20;60.41;100109.56;109969;1240;62697;-75
2023/08/29 06:30:39;;;;;;;16.20;6.10;;;;;;;29.29;58.84;100108.27;109998;1241;57841;-75
2023/08/29 06:33:08;;;;;;;13.80;5.50;;;;;;;29.46;59.19;100105.71;110085;1238;57389;-75
2023/08/29 06:35:38;;;;;;;10.00;5.00;;;;;;;29.65;58.99;100106.09;109868;1238;72184;-75
2023/08/29 06:38:07;;;;;;;9.80;4.90;;;;;;;29.79;58.98;100108.45;109900;1238;62576;-76
2023/08/29 06:40:37;;;;;;;14.80;5.30;;;;;;;29.93;58.75;100106.02;110024;1239;59343;-75
2023/08/29 06:43:06;;;;;;;22.80;6.70;;;;;;;30.02;56.38;100105.27;110087;1239;63875;-73
2023/08/29 06:45:35;;;;;;;15.70;5.90;;;;;;;30.16;56.50;100100.30;109993;1238;59987;-75
2023/08/29 06:48:04;;;;;;;10.40;4.30;;;;;;;30.32;56.27;100101.59;110062;1238;61678;-75
2023/08/29 06:50:34;;;;;;;10.20;4.70;;;;;;;30.45;56.18;100101.65;110054;1238;64355;-74
2023/08/29 06:53:04;;;;;;;15.20;5.80;;;;;;;30.56;56.00;100102.22;110008;1240;61792;-74
2023/08/29 06:55:34;;;;;;;11.30;4.90;;;;;;;30.70;55.18;100102.14;109965;1238;70053;-74
2023/08/29 06:58:04;;;;;;;12.70;5.20;;;;;;;30.82;54.51;100097.70;109893;1239;63484;-76
2023/08/29 07:00:34;;;;;;;13.00;4.80;;;;;;;30.96;54.16;100102.48;109885;1237;59164;-74
2023/08/29 07:03:04;;;;;;;12.90;5.00;;;;;;;31.11;53.68;100104.36;109682;1238;61957;-72
2023/08/29 07:05:33;;;;;;;14.50;5.30;;;;;;;31.23;53.52;100110.75;110036;1237;63518;-72
2023/08/29 07:08:03;;;;;;;12.40;4.30;;;;;;;31.40;53.49;100111.83;109889;1238;61161;-75
2023/08/29 07:10:33;;;;;;;15.90;5.30;;;;;;;31.58;53.62;100110.55;110078;1238;59861;-74
2023/08/29 07:13:03;;;;;;;14.10;5.50;;;;;;;31.67;51.60;100107.13;110071;1238;63263;-74
2023/08/29 07:15:32;;;;;;;11.30;4.50;;;;;;;31.73;51.03;100105.10;110082;1238;57712;-75
2023/08/29 07:18:05;;;;;;;7.90;4.60;;;;;;;31.85;50.97;100106.08;110001;1238;57177;-75
2023/08/29 07:20:34;;;;;;;11.70;4.90;;;;;;;31.95;49.81;100110.42;110021;1238;73199;-75
2023/08/29 07:23:04;;;;;;;7.20;4.20;;;;;;;32.12;50.85;100113.54;109975;1238;63551;-74
2023/08/29 07:25:43;;;;;;;14.10;5.30;;;;;;;32.24;50.21;100112.87;109859;1238;60439;-73
2023/08/29 07:28:13;;;;;;;13.20;4.90;;;;;;;32.39;49.71;100108.84;109942;1240;62711;-73
2023/08/29 07:30:45;;;;;;;10.40;4.40;;;;;;;32.52;49.38;100106.59;110063;1238;57510;-73
2023/08/29 07:33:15;;;;;;;11.40;5.00;;;;;;;32.60;48.91;100103.34;109777;1238;57242;-74
2023/08/29 07:35:46;;;;;;;11.20;5.20;;;;;;;32.68;47.73;100103.16;109826;1241;73442;-73
2023/08/29 07:38:17;;;;;;;11.70;4.80;;;;;;;32.70;47.51;100100.30;109782;1238;61074;-73
2023/08/29 07:40:47;;;;;;;15.50;5.60;;;;;;;32.77;47.41;100094.34;109970;1238;59160;-73
2023/08/29 07:43:16;;;;;;;14.30;5.60;;;;;;;32.95;47.70;100091.42;110035;1238;64382;-75
2023/08/29 07:45:46;;;;;;;8.90;4.90;;;;;;;33.03;46.98;100090.92;109880;1238;61679;-78
2023/08/29 07:48:15;;;;;;;12.00;4.90;;;;;;;33.12;46.17;100086.61;109999;1237;57422;-75
2023/08/29 07:50:44;;;;;;;12.10;5.30;;;;;;;33.28;46.26;100084.02;109949;1237;64237;-77
2023/08/29 07:53:13;;;;;;;10.40;5.00;;;;;;;33.35;46.25;100077.67;109844;1238;72316;-78
2023/08/29 07:55:42;;;;;;;8.70;5.60;;;;;;;33.50;45.63;100077.90;110008;1238;69675;-75
2023/08/29 07:58:13;;;;;;;12.80;5.00;;;;;;;33.54;45.48;100079.56;110016;1238;62938;-76
2023/08/29 08:00:42;;;;;;;10.30;4.50;;;;;;;33.63;45.16;100079.73;110035;1239;59880;-77
2023/08/29 08:03:11;;;;;;;10.00;4.80;;;;;;;33.69;45.32;100082.84;110041;1238;57755;-76
2023/08/29 08:05:40;;;;;;;11.90;4.70;;;;;;;33.68;44.50;100084.69;109977;1237;65302;-74
2023/08/29 08:08:09;;;;;;;10.00;5.00;;;;;;;33.75;44.48;100082.59;110027;1238;60857;-77
2023/08/29 08:10:38;;;;;;;12.70;4.70;;;;;;;33.85;43.97;100079.13;110014;1237;59747;-75
2023/08/29 08:13:07;;;;;;;15.10;4.70;;;;;;;33.87;43.45;100076.19;110007;1237;73090;-74
2023/08/29 08:15:35;;;;;;;12.80;4.50;;;;;;;33.92;43.42;100066.20;109865;1238;58694;-74
2023/08/29 08:18:04;;;;;;;13.50;5.20;;;;;;;34.05;43.61;100064.61;109879;1238;57366;-73
2023/08/29 08:20:35;;;;;;;10.50;6.00;;;;;;;34.25;42.66;100061.09;109882;1239;72696;-74
2023/08/29 08:23:06;;;;;;;;;;;;;;;34.42;41.77;100061.39;109680;1238;71977;-74
2023/08/29 08:25:38;;;;;;;14.30;4.90;;;;;;;34.60;42.28;100065.63;109818;1238;61386;-75
2023/08/29 08:28:07;;;;;;;9.00;4.40;;;;;;;34.63;41.87;100063.17;109880;1238;63797;-75
2023/08/29 08:30:37;;;;;;;7.80;4.30;;;;;;;34.70;40.68;100061.59;109941;1237;57875;-75
2023/08/29 08:33:06;;;;;;;13.80;4.50;;;;;;;34.80;40.46;100058.73;109949;1237;57737;-74
2023/08/29 08:35:35;;;;;;;12.20;4.50;;;;;;;34.90;40.71;100058.18;109731;1238;62756;-76
2023/08/29 08:38:15;;;;;;;9.30;4.40;;;;;;;35.00;40.41;100059.67;109772;1238;62565;-78
2023/08/29 08:40:44;;;;;;;13.10;4.30;;;;;;;35.08;39.55;100055.13;109903;1238;59960;-77
2023/08/29 08:43:14;;;;;;;14.90;5.00;;;;;;;35.22;39.64;100057.95;109878;1237;63075;-79
2023/08/29 08:45:43;;;;;;;7.30;4.00;;;;;;;35.28;39.56;100057.88;109890;1239;61102;-77
2023/08/29 08:48:12;;;;;;;8.60;3.90;;;;;;;35.49;38.88;100055.90;109940;1237;60722;-76
2023/08/29 08:50:44;;;;;;;9.30;4.10;;;;;;;35.62;37.13;100057.46;110051;1238;73650;-75
2023/08/29 08:53:15;;;;;;;8.50;4.00;;;;;;;35.70;36.60;100055.02;109916;1239;64023;-76
2023/08/29 08:55:44;;;;;;;9.00;4.20;;;;;;;35.86;36.00;100053.27;109931;1238;61156;-75
2023/08/29 08:58:13;;;;;;;8.10;4.00;;;;;;;35.85;35.68;100052.79;109777;1237;64730;-76
2023/08/29 09:00:42;;;;;;;9.10;3.80;;;;;;;35.66;35.94;100047.30;109754;1238;57218;-74
2023/08/29 09:03:13;;;;;;;8.80;3.90;;;;;;;35.64;35.97;100049.54;109910;1237;57725;-74
2023/08/29 09:05:43;;;;;;;6.90;3.80;;;;;;;35.89;35.44;100051.70;109729;1238;64239;-74
2023/08/29 09:08:12;;;;;;;10.90;4.20;;;;;;;35.91;35.09;100042.97;109695;1238;72442;-73
2023/08/29 09:10:40;;;;;;;7.10;3.90;;;;;;;35.92;34.97;100038.50;109733;1238;61011;-74
2023/08/29 09:13:19;;;;;;;7.10;3.90;;;;;;;35.84;35.30;100034.09;109544;1238;64592;-73
2023/08/29 09:15:48;;;;;;;7.20;4.10;;;;;;;35.91;35.28;100037.11;109796;1239;61777;-71
2023/08/29 09:18:31;;;;;;;10.10;4.60;;;;;;;35.84;35.65;100036.55;109576;1238;61481;-75
2023/08/29 09:21:00;;;;;;;6.90;4.10;;;;;;;35.88;35.55;100038.66;109742;1239;63215;-75
2023/08/29 09:23:37;;;;;;;8.70;4.20;;;;;;;36.06;34.99;100039.23;109586;1238;71264;-75
2023/08/29 09:26:10;;;;;;;7.00;3.60;;;;;;;36.25;34.88;100038.73;109649;1238;70765;-74
2023/08/29 09:28:40;;;;;;;12.30;4.70;;;;;;;36.41;34.08;100034.96;109719;1238;63623;-74
2023/08/29 09:31:15;;;;;;;9.70;4.70;;;;;;;36.37;34.13;100031.96;109614;1237;59717;-74
2023/08/29 09:33:46;;;;;;;20.10;4.80;;;;;;;36.28;34.15;100026.67;109645;1238;60261;-74
2023/08/29 09:36:15;;;;;;;11.50;4.30;;;;;;;36.18;33.79;100032.52;109692;1237;73951;-73
2023/08/29 09:38:45;;;;;;;8.40;4.10;;;;;;;35.92;33.99;100031.48;109756;1237;72191;-73
2023/08/29 09:41:14;;;;;;;9.50;3.90;;;;;;;36.21;34.29;100030.05;109687;1238;70054;-75
2023/08/29 09:43:47;;;;;;;7.80;4.00;;;;;;;36.55;33.81;100026.84;109844;1239;73739;-77
2023/08/29 09:46:26;;;;;;;10.00;4.10;;;;;;;36.54;33.49;100022.67;109781;1237;57725;-74
2023/08/29 09:48:55;;;;;;;12.40;4.70;;;;;;;36.73;33.43;100021.55;109787;1237;60387;-75
2023/08/29 09:51:26;;;;;;;14.50;4.40;;;;;;;36.63;33.08;100022.17;109647;1242;63344;-75
2023/08/29 09:53:57;;;;;;;10.00;3.90;;;;;;;36.71;32.68;100017.27;109881;1238;62340;-74
2023/08/29 09:56:29;;;;;;;15.10;4.50;;;;;;;36.76;32.38;100012.41;109908;1238;60468;-73
2023/08/29 09:59:01;;;;;;;9.70;3.90;;;;;;;36.95;32.12;100011.13;109806;1237;73769;-74
2023/08/29 10:01:30;;;;;;;9.00;4.00;;;;;;;37.03;32.34;100009.10;109974;1239;57920;-75
2023/08/29 10:04:06;;;;;;;14.70;3.90;;;;;;;37.00;32.36;100011.29;109804;1238;57751;-74
2023/08/29 10:06:37;;;;;;;11.60;4.20;;;;;;;36.84;32.35;100010.46;110006;1238;73304;-74
2023/08/29 10:09:06;;;;;;;15.20;4.10;;;;;;;37.01;32.11;100009.42;109911;1238;72756;-75
2023/08/29 10:11:36;;;;;;;9.90;4.80;;;;;;;37.18;32.09;100009.73;109831;1238;59699;-75
2023/08/29 10:14:23;;;;;;;17.20;5.40;;;;;;;37.32;32.04;100009.45;109845;1237;63244;-74
2023/08/29 10:16:54;;;;;;;12.80;4.90;;;;;;;37.53;31.95;100008.94;109980;1238;57653;-74
2023/08/29 10:19:22;;;;;;;8.90;4.50;;;;;;;37.66;31.52;100012.94;110044;1237;57884;-74
2023/08/29 10:21:53;;;;;;;8.50;4.50;;;;;;;37.96;31.40;100011.10;109989;1237;62877;-72
2023/08/29 10:24:23;;;;;;;18.30;4.10;;;;;;;38.13;30.98;100009.20;109807;1238;63207;-74
2023/08/29 10:26:52;;;;;;;6.00;3.70;;;;;;;37.99;30.81;100005.41;109894;1237;61809;-75
2023/08/29 10:29:21;;;;;;;15.70;4.50;;;;;;;38.19;30.69;100001.96;109855;1237;65204;-74
2023/08/29 10:31:50;;;;;;;9.80;3.90;;;;;;;38.07;30.57;100002.42;109866;1237;60819;-73
2023/08/29 10:34:20;;;;;;;8.30;4.00;;;;;;;38.06;30.39;100002.96;109910;1237;62328;-74
2023/08/29 10:36:50;;;;;;;9.30;4.00;;;;;;;38.61;30.15;99999.08;109818;1237;64234;-74
2023/08/29 10:39:19;;;;;;;7.30;3.70;;;;;;;38.90;30.04;99992.92;109882;1237;62749;-73
2023/08/29 10:41:53;;;;;;;7.90;3.80;;;;;;;39.00;29.41;99988.95;110000;1238;60044;-74
2023/08/29 10:44:31;;;;;;;7.60;4.00;;;;;;;38.95;29.40;99981.16;110068;1237;65000;-73
2023/08/29 10:47:46;;;;;;;17.60;4.00;;;;;;;39.11;28.99;99978.08;110112;1239;57776;-75
2023/08/29 10:50:22;;;;;;;12.70;4.20;;;;;;;38.92;28.96;99980.58;109583;1245;57759;-74
2023/08/29 10:52:56;;;;;;;16.00;4.30;;;;;;;38.82;28.85;99983.79;109782;1237;74293;-76
2023/08/29 10:55:32;;;;;;;16.60;3.90;;;;;;;39.16;28.74;99982.52;110033;1239;62893;-77
2023/08/29 10:58:30;;;;;;;13.20;4.10;;;;;;;38.85;29.07;99978.89;109866;1238;69706;-75
2023/08/29 11:00:59;;;;;;;7.90;3.70;;;;;;;39.23;28.89;99982.45;109759;1241;62728;-74
2023/08/29 11:03:48;;;;;;;9.50;4.00;;;;;;;39.74;28.39;99982.96;109901;1239;57770;-77
2023/08/29 11:06:19;;;;;;;6.60;3.70;;;;;;;40.34;27.52;99971.80;109847;1241;57748;-75
2023/08/29 11:08:48;;;;;;;13.00;4.00;;;;;;;40.55;27.47;99963.20;109622;1237;74836;-75
2023/08/29 11:11:21;;;;;;;8.00;4.00;;;;;;;40.64;27.69;99960.30;109825;1238;72505;-75
2023/08/29 11:14:03;;;;;;;11.60;3.90;;;;;;;39.62;27.79;99955.93;109645;1238;61349;-75
2023/08/29 11:16:35;;;;;;;8.90;3.70;;;;;;;39.06;28.27;99955.73;109731;1238;65134;-75
2023/08/29 11:19:14;;;;;;;10.00;3.90;;;;;;;39.56;27.85;99955.02;109624;1242;60101;-76
2023/08/29 11:21:46;;;;;;;4.40;3.00;;;;;;;39.64;27.85;99950.71;109778;1239;57708;-76
2023/08/29 11:24:15;;;;;;;7.90;3.90;;;;;;;40.44;27.22;99948.30;109777;1241;63230;-75
2023/08/29 11:26:46;;;;;;;5.90;3.60;;;;;;;41.09;25.91;99949.78;109884;1238;62744;-76
2023/08/29 11:29:16;;;;;;;12.60;3.90;;;;;;;41.22;25.48;99942.38;109603;1243;60516;-75
2023/08/29 11:31:45;;;;;;;10.00;4.20;;;;;;;40.26;26.58;99935.19;109829;1239;65114;-76